Cap Pasley — A8NQ6 — position and weather

sailwx.info

Track history (hours):
 
Tides and Currents Weather Stations Pressure Air Temp Water Temp Dewpoint Dewpoint Depression Visibility Wind Speed Wind Dir Waves Ship Positions

Cap Pasley

Last reported at 2018-Apr-16 08:53 UTC. Time now 2018-Apr-24 08:45 UTC.
Position N 30°49' W 118°20'.

Length 186 m; draft 8.9 m.

MMSI: 636016648.

Date/timePositionNaut miles runAvg speedWind from/ knotsBaromVisibWave heightAir tempDewpointWater temp
2018-Apr-16 08:53N 30°49' W 118°20'2018.8
2018-Apr-16 07:49N 31°05' W 118°34'619.1
2018-Apr-16 07:30N 31°09' W 118°38'2819.0
2018-Apr-16 06:01N 31°32' W 118°59'119.2
2018-Apr-16 05:57N 31°33' W 118°60'2219.3
2018-Apr-16 04:48N 31°50' W 119°16'4519.3
2018-Apr-16 02:29N 32°26' W 119°48'2119.6
2018-Apr-16 01:25N 32°42' W 120°03'1919.7
2018-Apr-16 00:29N 32°57' W 120°16'1119.9
2018-Apr-15 23:57N 33°05' W 120°24'919.7
2018-Apr-15 23:30N 33°12' W 120°30'1019.5
2018-Apr-15 23:00N 33°20' W 120°38'1019.4
2018-Apr-15 22:30N 33°27' W 120°45'1019.4
2018-Apr-15 22:00N 33°35' W 120°52'1019.3
2018-Apr-15 21:30N 33°43' W 120°59'1019.3
2018-Apr-15 21:00N 33°51' W 121°06'919.0
2018-Apr-15 20:30N 33°58' W 121°13'919.0
2018-Apr-15 20:00N 34°06' W 121°18'1019.1
2018-Apr-15 19:30N 34°15' W 121°22'918.8
2018-Apr-15 19:00N 34°24' W 121°26'1019.1
2018-Apr-15 18:30N 34°33' W 121°30'1019.4
2018-Apr-15 18:00N 34°42' W 121°34'1019.4
2018-Apr-15 17:30N 34°51' W 121°38'919.0
2018-Apr-15 17:00N 35°00' W 121°42'1019.1
2018-Apr-15 16:30N 35°09' W 121°46'1018.8
2018-Apr-15 16:00N 35°18' W 121°51'918.5
2018-Apr-15 15:30N 35°27' W 121°55'1019.2
2018-Apr-15 15:00N 35°35' W 121°59'1119.4
2018-Apr-15 14:27N 35°45' W 122°04'1919.3
2018-Apr-15 13:27N 36°04' W 122°12'1119.1
2018-Apr-15 12:53N 36°14' W 122°17'718.9
2018-Apr-15 12:30N 36°21' W 122°20'4618.9
2018-Apr-15 10:03N 37°04' W 122°40'418.9
2018-Apr-15 09:49N 37°08' W 122°41'618.7
2018-Apr-15 09:30N 37°14' W 122°43'918.7
2018-Apr-15 09:00N 37°23' W 122°44'918.8
2018-Apr-15 08:30N 37°33' W 122°44'918.6
2018-Apr-15 08:00N 37°42' W 122°43'612.3
2018-Apr-15 07:31N 37°46' W 122°38'816.6
2018-Apr-15 07:00N 37°50' W 122°28'510.9
2018-Apr-15 06:30N 37°48' W 122°21'2 3.0
2018-Apr-15 05:58N 37°48' W 122°19'0 0.0
2018-Apr-15 05:28N 37°48' W 122°19'0 0.0
2018-Apr-15 04:58N 37°48' W 122°19'0 0.0
2018-Apr-15 04:28N 37°48' W 122°19'0 0.0
2018-Apr-15 03:58N 37°48' W 122°19'0 0.0
2018-Apr-15 03:28N 37°48' W 122°19'0 0.0
2018-Apr-15 02:58N 37°48' W 122°19'0 0.0
2018-Apr-15 02:28N 37°48' W 122°19'0 0.0
2018-Apr-15 01:58N 37°48' W 122°19'0 0.0
2018-Apr-15 01:28N 37°48' W 122°19'0 0.0
2018-Apr-15 00:58N 37°48' W 122°19'0 0.0
2018-Apr-15 00:28N 37°48' W 122°19'0 0.0
2018-Apr-14 23:58N 37°48' W 122°19'0 0.0
2018-Apr-14 23:28N 37°48' W 122°19'0 0.0
2018-Apr-14 22:58N 37°48' W 122°19'0 0.0
2018-Apr-14 22:28N 37°48' W 122°19'0 0.1
2018-Apr-14 21:58N 37°48' W 122°19'0 0.1
2018-Apr-14 21:28N 37°48' W 122°19'0 0.0
2018-Apr-14 20:58N 37°48' W 122°19'0 0.0
2018-Apr-14 20:28N 37°48' W 122°19'0 0.0
2018-Apr-14 19:58N 37°48' W 122°19'0 0.0
2018-Apr-14 19:28N 37°48' W 122°19'0 0.0
2018-Apr-14 18:58N 37°48' W 122°19'0 0.0
2018-Apr-14 18:28N 37°48' W 122°19'0 0.0
2018-Apr-14 17:58N 37°48' W 122°19'0 0.0
2018-Apr-14 17:28N 37°48' W 122°19'0 0.0
2018-Apr-14 16:58N 37°48' W 122°19'0 0.0
2018-Apr-14 16:25N 37°48' W 122°19'0 0.0
2018-Apr-14 15:58N 37°48' W 122°19'0 0.0
2018-Apr-14 15:28N 37°48' W 122°19'0 0.0
2018-Apr-14 14:58N 37°48' W 122°19'0 0.0
2018-Apr-14 14:28N 37°48' W 122°19'0 0.0
2018-Apr-14 13:58N 37°48' W 122°19'0 0.0
2018-Apr-14 13:28N 37°48' W 122°19'0 0.0
2018-Apr-14 12:58N 37°48' W 122°19'0 0.4
2018-Apr-14 12:30N 37°48' W 122°20'4 8.0
2018-Apr-14 12:01N 37°49' W 122°24'612.8
2018-Apr-14 11:30N 37°47' W 122°32'713.6
2018-Apr-14 11:00N 37°45' W 122°41'4 8.4
2018-Apr-14 10:31N 37°47' W 122°46'5 9.6
2018-Apr-14 10:01N 37°48' W 122°51'611.9
2018-Apr-14 09:31N 37°51' W 122°58'612.1
2018-Apr-14 09:00N 37°54' W 123°05'611.8
2018-Apr-14 08:30N 37°57' W 123°11'612.2
2018-Apr-14 08:00N 38°02' W 123°16'612.4
2018-Apr-14 07:30N 38°07' W 123°21'612.4
2018-Apr-14 07:00N 38°12' W 123°25'1 2.5
2018-Apr-14 06:30N 38°13' W 123°24'4 8.3
2018-Apr-14 05:59N 38°09' W 123°20'4 8.0
2018-Apr-14 05:30N 38°06' W 123°17'4 7.8
2018-Apr-14 05:00N 38°03' W 123°14'3 6.5
2018-Apr-14 04:30N 38°01' W 123°11'2 3.5
2018-Apr-14 04:00N 37°59' W 123°10'2 4.1
2018-Apr-14 03:30N 37°58' W 123°08'2 4.0
2018-Apr-14 03:00N 37°57' W 123°06'2 3.7
2018-Apr-14 02:30N 37°56' W 123°04'2 3.5
2018-Apr-14 02:00N 37°55' W 123°02'2 3.9
2018-Apr-14 01:30N 37°55' W 122°59'2 4.3
2018-Apr-14 01:00N 37°54' W 122°57'2 4.4
2018-Apr-14 00:30N 37°52' W 122°55'2 4.2
2018-Apr-14 00:00N 37°51' W 122°52'2 4.2
2018-Apr-13 23:31N 37°50' W 122°50'2 4.2
2018-Apr-13 23:01N 37°49' W 122°48'2 4.0
2018-Apr-13 22:31N 37°48' W 122°46'2 4.2
2018-Apr-13 22:01N 37°46' W 122°45'2 4.3
2018-Apr-13 21:30N 37°44' W 122°43'2 4.6
2018-Apr-13 21:00N 37°42' W 122°42'3 5.4
2018-Apr-13 20:31N 37°40' W 122°40'5 9.5
2018-Apr-13 20:01N 37°35' W 122°40'5 9.8
2018-Apr-13 19:31N 37°30' W 122°40'5 9.9
2018-Apr-13 19:00N 37°25' W 122°40'5 9.9
2018-Apr-13 18:31N 37°20' W 122°40'5 9.9
2018-Apr-13 18:00N 37°15' W 122°39'510.1
2018-Apr-13 17:30N 37°10' W 122°37'510.1
2018-Apr-13 17:01N 37°06' W 122°36'510.1
2018-Apr-13 16:30N 37°01' W 122°34'10611.4
2018-Apr-13 07:09N 35°25' W 121°37'211.5
2018-Apr-13 07:00N 35°23' W 121°36'611.3
2018-Apr-13 06:30N 35°18' W 121°33'611.3
2018-Apr-13 06:00N 35°13' W 121°29'611.0
2018-Apr-13 05:30N 35°09' W 121°25'510.8
2018-Apr-13 05:00N 35°04' W 121°22'510.7
2018-Apr-13 04:30N 35°00' W 121°18'610.9
2018-Apr-13 04:00N 34°55' W 121°14'510.9
2018-Apr-13 03:30N 34°51' W 121°11'611.0
2018-Apr-13 03:00N 34°46' W 121°07'510.8
2018-Apr-13 02:31N 34°41' W 121°04'510.7
2018-Apr-13 02:00N 34°37' W 121°00'510.7
2018-Apr-13 01:31N 34°32' W 120°57'510.6
2018-Apr-13 01:01N 34°28' W 120°53'510.3
2018-Apr-13 00:30N 34°25' W 120°48'611.2
2018-Apr-13 00:00N 34°24' W 120°41'511.1
2018-Apr-12 23:30N 34°22' W 120°35'611.2
2018-Apr-12 22:59N 34°21' W 120°28'611.0
2018-Apr-12 22:29N 34°19' W 120°22'610.9
2018-Apr-12 21:58N 34°18' W 120°15'611.0
2018-Apr-12 21:28N 34°16' W 120°09'510.7
2018-Apr-12 21:00N 34°15' W 120°03'5 9.5
2018-Apr-12 20:30N 34°14' W 119°58'5 9.3
2018-Apr-12 20:00N 34°12' W 119°52'5 9.3
2018-Apr-12 19:29N 34°11' W 119°47'5 9.9
2018-Apr-12 19:00N 34°10' W 119°41'6 9.8
2018-Apr-12 18:26N 34°09' W 119°35'4 9.8
2018-Apr-12 18:00N 34°08' W 119°29'5 9.8
2018-Apr-12 17:30N 34°06' W 119°24'5 9.9
2018-Apr-12 17:00N 34°05' W 119°18'5 9.8
2018-Apr-12 16:30N 34°03' W 119°13'611.5
2018-Apr-12 16:00N 33°60' W 119°06'611.7
2018-Apr-12 15:28N 33°57' W 119°00'511.6
2018-Apr-12 15:00N 33°54' W 118°54'611.6
2018-Apr-12 14:30N 33°51' W 118°48'611.9
2018-Apr-12 14:00N 33°48' W 118°42'611.8
2018-Apr-12 13:31N 33°46' W 118°36'611.8
2018-Apr-12 13:00N 33°43' W 118°30'611.7
2018-Apr-12 12:30N 33°40' W 118°24'611.1
2018-Apr-12 11:57N 33°38' W 118°16'410.0
2018-Apr-12 11:31N 33°41' W 118°12'4 7.5
2018-Apr-12 11:00N 33°44' W 118°13'2 4.2
2018-Apr-12 10:30N 33°46' W 118°14'0 0.0
2018-Apr-12 10:00N 33°46' W 118°14'0 0.0
2018-Apr-12 09:29N 33°46' W 118°14'0 0.0
2018-Apr-12 08:59N 33°46' W 118°14'0 0.0
2018-Apr-12 08:29N 33°46' W 118°14'0 0.0
2018-Apr-12 07:59N 33°46' W 118°14'0 0.0
2018-Apr-12 07:29N 33°46' W 118°14'0 0.0
2018-Apr-12 06:59N 33°46' W 118°14'0 0.0
2018-Apr-12 06:29N 33°46' W 118°14'0 0.0
2018-Apr-12 05:59N 33°46' W 118°14'0 0.0
2018-Apr-12 05:29N 33°46' W 118°14'0 0.0
2018-Apr-12 04:59N 33°46' W 118°14'0 0.0
2018-Apr-12 04:29N 33°46' W 118°14'0 0.0
2018-Apr-12 03:59N 33°46' W 118°14'0 0.0
2018-Apr-12 03:29N 33°46' W 118°14'0 0.0
2018-Apr-12 02:59N 33°46' W 118°14'0 0.0
2018-Apr-12 02:29N 33°46' W 118°14'0 0.0
2018-Apr-12 01:59N 33°46' W 118°14'0 0.0
2018-Apr-12 01:29N 33°46' W 118°14'0 0.0
2018-Apr-12 00:59N 33°46' W 118°14'0 0.0
2018-Apr-12 00:29N 33°46' W 118°14'0 0.0
2018-Apr-11 23:59N 33°46' W 118°14'0 0.0
2018-Apr-11 23:29N 33°46' W 118°14'0 0.0
2018-Apr-11 22:59N 33°46' W 118°14'0 0.0
2018-Apr-11 22:29N 33°46' W 118°14'0 0.0
2018-Apr-11 21:59N 33°46' W 118°14'0 0.0
2018-Apr-11 21:29N 33°46' W 118°14'0 0.0
2018-Apr-11 20:59N 33°46' W 118°14'0 0.0
2018-Apr-11 20:29N 33°46' W 118°14'0 0.5
2018-Apr-11 20:00N 33°46' W 118°14'1 3.0
2018-Apr-11 19:31N 33°45' W 118°13'4 8.0
2018-Apr-11 19:00N 33°41' W 118°10'3 6.1
2018-Apr-11 18:30N 33°38' W 118°10'3 6.4
2018-Apr-11 18:00N 33°35' W 118°10'3 6.6
2018-Apr-11 17:30N 33°32' W 118°08'3 6.9
2018-Apr-11 17:00N 33°29' W 118°07'4 7.1
2018-Apr-11 16:30N 33°25' W 118°05'4 7.1
2018-Apr-11 16:00N 33°22' W 118°04'4 7.1
2018-Apr-11 15:30N 33°19' W 118°02'4 9.2
2018-Apr-11 15:00N 33°15' W 118°00'2 4.2
2018-Apr-11 14:30N 33°13' W 117°59'3 5.7
2018-Apr-11 14:00N 33°10' W 117°57'3 5.8
2018-Apr-11 13:30N 33°08' W 117°56'3 6.9
2018-Apr-11 13:00N 33°04' W 117°54'5 9.2
2018-Apr-11 12:30N 33°00' W 117°52'5 9.3
2018-Apr-11 12:00N 32°56' W 117°50'5 9.8
2018-Apr-11 11:30N 32°51' W 117°47'510.3
2018-Apr-11 11:00N 32°47' W 117°45'510.1
2018-Apr-11 10:30N 32°42' W 117°43'5 9.9
2018-Apr-11 10:01N 32°38' W 117°40'612.5
2018-Apr-11 09:30N 32°32' W 117°38'918.5
2018-Apr-11 09:00N 32°23' W 117°34'918.1
2018-Apr-11 08:30N 32°14' W 117°31'1418.3
2018-Apr-11 07:44N 32°01' W 117°25'418.2
2018-Apr-11 07:30N 31°57' W 117°24'1017.9
2018-Apr-11 06:56N 31°48' W 117°20'818.2
2018-Apr-11 06:30N 31°40' W 117°16'3217.9
2018-Apr-11 04:43N 31°10' W 117°04'418.0
2018-Apr-11 04:30N 31°06' W 117°03'917.9
2018-Apr-11 03:59N 30°58' W 117°00'918.3
2018-Apr-11 03:30N 30°49' W 116°56'918.6
2018-Apr-11 03:00N 30°40' W 116°52'  
Track history (hours):
 
Tides and Currents Weather Stations Pressure Air Temp Water Temp Dewpoint Dewpoint Depression Visibility Wind Speed Wind Dir Waves Ship Positions

Cap Pasley

Last reported at 2018-Apr-16 08:53 UTC. Time now 2018-Apr-24 08:45 UTC.
Position N 30°49' W 118°20'.

Length 186 m; draft 8.9 m.

MMSI: 636016648.

Date/timePositionNaut miles runAvg speedWind from/ knotsBaromVisibWave heightAir tempDewpointWater temp
2018-Apr-16 08:53N 30°49' W 118°20'2018.8
2018-Apr-16 07:49N 31°05' W 118°34'619.1
2018-Apr-16 07:30N 31°09' W 118°38'2819.0
2018-Apr-16 06:01N 31°32' W 118°59'119.2
2018-Apr-16 05:57N 31°33' W 118°60'2219.3
2018-Apr-16 04:48N 31°50' W 119°16'4519.3
2018-Apr-16 02:29N 32°26' W 119°48'2119.6
2018-Apr-16 01:25N 32°42' W 120°03'1919.7
2018-Apr-16 00:29N 32°57' W 120°16'1119.9
2018-Apr-15 23:57N 33°05' W 120°24'919.7
2018-Apr-15 23:30N 33°12' W 120°30'1019.5
2018-Apr-15 23:00N 33°20' W 120°38'1019.4
2018-Apr-15 22:30N 33°27' W 120°45'1019.4
2018-Apr-15 22:00N 33°35' W 120°52'1019.3
2018-Apr-15 21:30N 33°43' W 120°59'1019.3
2018-Apr-15 21:00N 33°51' W 121°06'919.0
2018-Apr-15 20:30N 33°58' W 121°13'919.0
2018-Apr-15 20:00N 34°06' W 121°18'1019.1
2018-Apr-15 19:30N 34°15' W 121°22'918.8
2018-Apr-15 19:00N 34°24' W 121°26'1019.1
2018-Apr-15 18:30N 34°33' W 121°30'1019.4
2018-Apr-15 18:00N 34°42' W 121°34'1019.4
2018-Apr-15 17:30N 34°51' W 121°38'919.0
2018-Apr-15 17:00N 35°00' W 121°42'1019.1
2018-Apr-15 16:30N 35°09' W 121°46'1018.8
2018-Apr-15 16:00N 35°18' W 121°51'918.5
2018-Apr-15 15:30N 35°27' W 121°55'1019.2
2018-Apr-15 15:00N 35°35' W 121°59'1119.4
2018-Apr-15 14:27N 35°45' W 122°04'1919.3
2018-Apr-15 13:27N 36°04' W 122°12'1119.1
2018-Apr-15 12:53N 36°14' W 122°17'718.9
2018-Apr-15 12:30N 36°21' W 122°20'4618.9
2018-Apr-15 10:03N 37°04' W 122°40'418.9
2018-Apr-15 09:49N 37°08' W 122°41'618.7
2018-Apr-15 09:30N 37°14' W 122°43'918.7
2018-Apr-15 09:00N 37°23' W 122°44'918.8
2018-Apr-15 08:30N 37°33' W 122°44'918.6
2018-Apr-15 08:00N 37°42' W 122°43'612.3
2018-Apr-15 07:31N 37°46' W 122°38'816.6
2018-Apr-15 07:00N 37°50' W 122°28'510.9
2018-Apr-15 06:30N 37°48' W 122°21'2 3.0
2018-Apr-15 05:58N 37°48' W 122°19'0 0.0
2018-Apr-15 05:28N 37°48' W 122°19'0 0.0
2018-Apr-15 04:58N 37°48' W 122°19'0 0.0
2018-Apr-15 04:28N 37°48' W 122°19'0 0.0
2018-Apr-15 03:58N 37°48' W 122°19'0 0.0
2018-Apr-15 03:28N 37°48' W 122°19'0 0.0
2018-Apr-15 02:58N 37°48' W 122°19'0 0.0
2018-Apr-15 02:28N 37°48' W 122°19'0 0.0
2018-Apr-15 01:58N 37°48' W 122°19'0 0.0
2018-Apr-15 01:28N 37°48' W 122°19'0 0.0
2018-Apr-15 00:58N 37°48' W 122°19'0 0.0
2018-Apr-15 00:28N 37°48' W 122°19'0 0.0
2018-Apr-14 23:58N 37°48' W 122°19'0 0.0
2018-Apr-14 23:28N 37°48' W 122°19'0 0.0
2018-Apr-14 22:58N 37°48' W 122°19'0 0.0
2018-Apr-14 22:28N 37°48' W 122°19'0 0.1
2018-Apr-14 21:58N 37°48' W 122°19'0 0.1
2018-Apr-14 21:28N 37°48' W 122°19'0 0.0
2018-Apr-14 20:58N 37°48' W 122°19'0 0.0
2018-Apr-14 20:28N 37°48' W 122°19'0 0.0
2018-Apr-14 19:58N 37°48' W 122°19'0 0.0
2018-Apr-14 19:28N 37°48' W 122°19'0 0.0
2018-Apr-14 18:58N 37°48' W 122°19'0 0.0
2018-Apr-14 18:28N 37°48' W 122°19'0 0.0
2018-Apr-14 17:58N 37°48' W 122°19'0 0.0
2018-Apr-14 17:28N 37°48' W 122°19'0 0.0
2018-Apr-14 16:58N 37°48' W 122°19'0 0.0
2018-Apr-14 16:25N 37°48' W 122°19'0 0.0
2018-Apr-14 15:58N 37°48' W 122°19'0 0.0
2018-Apr-14 15:28N 37°48' W 122°19'0 0.0
2018-Apr-14 14:58N 37°48' W 122°19'0 0.0
2018-Apr-14 14:28N 37°48' W 122°19'0 0.0
2018-Apr-14 13:58N 37°48' W 122°19'0 0.0
2018-Apr-14 13:28N 37°48' W 122°19'0 0.0
2018-Apr-14 12:58N 37°48' W 122°19'0 0.4
2018-Apr-14 12:30N 37°48' W 122°20'4 8.0
2018-Apr-14 12:01N 37°49' W 122°24'612.8
2018-Apr-14 11:30N 37°47' W 122°32'713.6
2018-Apr-14 11:00N 37°45' W 122°41'4 8.4
2018-Apr-14 10:31N 37°47' W 122°46'5 9.6
2018-Apr-14 10:01N 37°48' W 122°51'611.9
2018-Apr-14 09:31N 37°51' W 122°58'612.1
2018-Apr-14 09:00N 37°54' W 123°05'611.8
2018-Apr-14 08:30N 37°57' W 123°11'612.2
2018-Apr-14 08:00N 38°02' W 123°16'612.4
2018-Apr-14 07:30N 38°07' W 123°21'612.4
2018-Apr-14 07:00N 38°12' W 123°25'1 2.5
2018-Apr-14 06:30N 38°13' W 123°24'4 8.3
2018-Apr-14 05:59N 38°09' W 123°20'4 8.0
2018-Apr-14 05:30N 38°06' W 123°17'4 7.8
2018-Apr-14 05:00N 38°03' W 123°14'3 6.5
2018-Apr-14 04:30N 38°01' W 123°11'2 3.5
2018-Apr-14 04:00N 37°59' W 123°10'2 4.1
2018-Apr-14 03:30N 37°58' W 123°08'2 4.0
2018-Apr-14 03:00N 37°57' W 123°06'2 3.7
2018-Apr-14 02:30N 37°56' W 123°04'2 3.5
2018-Apr-14 02:00N 37°55' W 123°02'2 3.9
2018-Apr-14 01:30N 37°55' W 122°59'2 4.3
2018-Apr-14 01:00N 37°54' W 122°57'2 4.4
2018-Apr-14 00:30N 37°52' W 122°55'2 4.2
2018-Apr-14 00:00N 37°51' W 122°52'2 4.2
2018-Apr-13 23:31N 37°50' W 122°50'2 4.2
2018-Apr-13 23:01N 37°49' W 122°48'2 4.0
2018-Apr-13 22:31N 37°48' W 122°46'2 4.2
2018-Apr-13 22:01N 37°46' W 122°45'2 4.3
2018-Apr-13 21:30N 37°44' W 122°43'2 4.6
2018-Apr-13 21:00N 37°42' W 122°42'3 5.4
2018-Apr-13 20:31N 37°40' W 122°40'5 9.5
2018-Apr-13 20:01N 37°35' W 122°40'5 9.8
2018-Apr-13 19:31N 37°30' W 122°40'5 9.9
2018-Apr-13 19:00N 37°25' W 122°40'5 9.9
2018-Apr-13 18:31N 37°20' W 122°40'5 9.9
2018-Apr-13 18:00N 37°15' W 122°39'510.1
2018-Apr-13 17:30N 37°10' W 122°37'510.1
2018-Apr-13 17:01N 37°06' W 122°36'510.1
2018-Apr-13 16:30N 37°01' W 122°34'10611.4
2018-Apr-13 07:09N 35°25' W 121°37'211.5
2018-Apr-13 07:00N 35°23' W 121°36'611.3
2018-Apr-13 06:30N 35°18' W 121°33'611.3
2018-Apr-13 06:00N 35°13' W 121°29'611.0
2018-Apr-13 05:30N 35°09' W 121°25'510.8
2018-Apr-13 05:00N 35°04' W 121°22'510.7
2018-Apr-13 04:30N 35°00' W 121°18'610.9
2018-Apr-13 04:00N 34°55' W 121°14'510.9
2018-Apr-13 03:30N 34°51' W 121°11'611.0
2018-Apr-13 03:00N 34°46' W 121°07'510.8
2018-Apr-13 02:31N 34°41' W 121°04'510.7
2018-Apr-13 02:00N 34°37' W 121°00'510.7
2018-Apr-13 01:31N 34°32' W 120°57'510.6
2018-Apr-13 01:01N 34°28' W 120°53'510.3
2018-Apr-13 00:30N 34°25' W 120°48'611.2
2018-Apr-13 00:00N 34°24' W 120°41'511.1
2018-Apr-12 23:30N 34°22' W 120°35'611.2
2018-Apr-12 22:59N 34°21' W 120°28'611.0
2018-Apr-12 22:29N 34°19' W 120°22'610.9
2018-Apr-12 21:58N 34°18' W 120°15'611.0
2018-Apr-12 21:28N 34°16' W 120°09'510.7
2018-Apr-12 21:00N 34°15' W 120°03'5 9.5
2018-Apr-12 20:30N 34°14' W 119°58'5 9.3
2018-Apr-12 20:00N 34°12' W 119°52'5 9.3
2018-Apr-12 19:29N 34°11' W 119°47'5 9.9
2018-Apr-12 19:00N 34°10' W 119°41'6 9.8
2018-Apr-12 18:26N 34°09' W 119°35'4 9.8
2018-Apr-12 18:00N 34°08' W 119°29'5 9.8
2018-Apr-12 17:30N 34°06' W 119°24'5 9.9
2018-Apr-12 17:00N 34°05' W 119°18'5 9.8
2018-Apr-12 16:30N 34°03' W 119°13'611.5
2018-Apr-12 16:00N 33°60' W 119°06'611.7
2018-Apr-12 15:28N 33°57' W 119°00'511.6
2018-Apr-12 15:00N 33°54' W 118°54'611.6
2018-Apr-12 14:30N 33°51' W 118°48'611.9
2018-Apr-12 14:00N 33°48' W 118°42'611.8
2018-Apr-12 13:31N 33°46' W 118°36'611.8
2018-Apr-12 13:00N 33°43' W 118°30'611.7
2018-Apr-12 12:30N 33°40' W 118°24'611.1
2018-Apr-12 11:57N 33°38' W 118°16'410.0
2018-Apr-12 11:31N 33°41' W 118°12'4 7.5
2018-Apr-12 11:00N 33°44' W 118°13'2 4.2
2018-Apr-12 10:30N 33°46' W 118°14'0 0.0
2018-Apr-12 10:00N 33°46' W 118°14'0 0.0
2018-Apr-12 09:29N 33°46' W 118°14'0 0.0
2018-Apr-12 08:59N 33°46' W 118°14'0 0.0
2018-Apr-12 08:29N 33°46' W 118°14'0 0.0
2018-Apr-12 07:59N 33°46' W 118°14'0 0.0
2018-Apr-12 07:29N 33°46' W 118°14'0 0.0
2018-Apr-12 06:59N 33°46' W 118°14'0 0.0
2018-Apr-12 06:29N 33°46' W 118°14'0 0.0
2018-Apr-12 05:59N 33°46' W 118°14'0 0.0
2018-Apr-12 05:29N 33°46' W 118°14'0 0.0
2018-Apr-12 04:59N 33°46' W 118°14'0 0.0
2018-Apr-12 04:29N 33°46' W 118°14'0 0.0
2018-Apr-12 03:59N 33°46' W 118°14'0 0.0
2018-Apr-12 03:29N 33°46' W 118°14'0 0.0
2018-Apr-12 02:59N 33°46' W 118°14'0 0.0
2018-Apr-12 02:29N 33°46' W 118°14'0 0.0
2018-Apr-12 01:59N 33°46' W 118°14'0 0.0
2018-Apr-12 01:29N 33°46' W 118°14'0 0.0
2018-Apr-12 00:59N 33°46' W 118°14'0 0.0
2018-Apr-12 00:29N 33°46' W 118°14'0 0.0
2018-Apr-11 23:59N 33°46' W 118°14'0 0.0
2018-Apr-11 23:29N 33°46' W 118°14'0 0.0
2018-Apr-11 22:59N 33°46' W 118°14'0 0.0
2018-Apr-11 22:29N 33°46' W 118°14'0 0.0
2018-Apr-11 21:59N 33°46' W 118°14'0 0.0
2018-Apr-11 21:29N 33°46' W 118°14'0 0.0
2018-Apr-11 20:59N 33°46' W 118°14'0 0.0
2018-Apr-11 20:29N 33°46' W 118°14'0 0.5
2018-Apr-11 20:00N 33°46' W 118°14'1 3.0
2018-Apr-11 19:31N 33°45' W 118°13'4 8.0
2018-Apr-11 19:00N 33°41' W 118°10'3 6.1
2018-Apr-11 18:30N 33°38' W 118°10'3 6.4
2018-Apr-11 18:00N 33°35' W 118°10'3 6.6
2018-Apr-11 17:30N 33°32' W 118°08'3 6.9
2018-Apr-11 17:00N 33°29' W 118°07'4 7.1
2018-Apr-11 16:30N 33°25' W 118°05'4 7.1
2018-Apr-11 16:00N 33°22' W 118°04'4 7.1
2018-Apr-11 15:30N 33°19' W 118°02'4 9.2
2018-Apr-11 15:00N 33°15' W 118°00'2 4.2
2018-Apr-11 14:30N 33°13' W 117°59'3 5.7
2018-Apr-11 14:00N 33°10' W 117°57'3 5.8
2018-Apr-11 13:30N 33°08' W 117°56'3 6.9
2018-Apr-11 13:00N 33°04' W 117°54'5 9.2
2018-Apr-11 12:30N 33°00' W 117°52'5 9.3
2018-Apr-11 12:00N 32°56' W 117°50'5 9.8
2018-Apr-11 11:30N 32°51' W 117°47'510.3
2018-Apr-11 11:00N 32°47' W 117°45'510.1
2018-Apr-11 10:30N 32°42' W 117°43'5 9.9
2018-Apr-11 10:01N 32°38' W 117°40'612.5
2018-Apr-11 09:30N 32°32' W 117°38'918.5
2018-Apr-11 09:00N 32°23' W 117°34'918.1
2018-Apr-11 08:30N 32°14' W 117°31'1418.3
2018-Apr-11 07:44N 32°01' W 117°25'418.2
2018-Apr-11 07:30N 31°57' W 117°24'1017.9
2018-Apr-11 06:56N 31°48' W 117°20'818.2
2018-Apr-11 06:30N 31°40' W 117°16'3217.9
2018-Apr-11 04:43N 31°10' W 117°04'418.0
2018-Apr-11 04:30N 31°06' W 117°03'917.9
2018-Apr-11 03:59N 30°58' W 117°00'918.3
2018-Apr-11 03:30N 30°49' W 116°56'918.6
2018-Apr-11 03:00N 30°40' W 116°52'  

Dump ship's entire track history